Time;durP1;ratioP1;P1;durP2;ratioP2;P2;SDS_P1;SDS_P2;PMS_P1;PMS_P2;Temp;Humidity;BMP_temperature;BMP_pressure;BME280_temperature;BME280_humidity;BME280_pressure;Samples;Min_cycle;Max_cycle;Signal;HPM_P1;HPM_P2
2023/02/14 00:00:01;;;;;;;22.97;13.77;;;;;;;;;;5114887;28;20536;-60
2023/02/14 00:02:28;;;;;;;20.90;11.90;;;;;;;;;;5114734;28;20798;-61
2023/02/14 00:04:55;;;;;;;22.00;13.13;;;;;;;;;;5114786;28;20976;-61
2023/02/14 00:07:23;;;;;;;17.30;12.40;;;;;;;;;;5114913;28;20545;-61
2023/02/14 00:09:50;;;;;;;20.33;12.80;;;;;;;;;;5114648;28;20450;-61
2023/02/14 00:12:17;;;;;;;18.87;13.17;;;;;;;;;;5114626;28;20453;-60
2023/02/14 00:17:29;;;;;;;18.83;13.63;;;;;;;;;;5114507;28;20550;-61
2023/02/14 00:19:56;;;;;;;18.30;12.20;;;;;;;;;;5114598;28;20452;-61
2023/02/14 00:22:24;;;;;;;18.10;11.30;;;;;;;;;;5114515;28;20495;-61
2023/02/14 00:24:51;;;;;;;18.40;13.03;;;;;;;;;;5114256;28;20473;-61
2023/02/14 00:27:18;;;;;;;16.77;11.70;;;;;;;;;;5114364;28;20446;-60
2023/02/14 00:29:45;;;;;;;20.90;13.40;;;;;;;;;;5114435;28;20446;-60
2023/02/14 00:32:11;;;;;;;17.27;12.47;;;;;;;;;;5114425;28;20472;-61
2023/02/14 00:34:40;;;;;;;18.87;13.07;;;;;;;;;;5114229;28;20452;-61
2023/02/14 00:37:07;;;;;;;18.90;12.93;;;;;;;;;;5114235;28;20812;-61
2023/02/14 00:39:35;;;;;;;22.90;12.90;;;;;;;;;;5114077;28;20446;-61
2023/02/14 00:42:02;;;;;;;18.83;12.57;;;;;;;;;;5113843;28;20450;-61
2023/02/14 00:44:29;;;;;;;20.50;12.73;;;;;;;;;;5113700;28;20949;-61
2023/02/14 00:46:56;;;;;;;17.70;13.10;;;;;;;;;;5114052;28;20493;-61
2023/02/14 00:49:23;;;;;;;18.93;12.33;;;;;;;;;;5114035;28;20460;-61
2023/02/14 00:51:50;;;;;;;17.43;12.20;;;;;;;;;;5113914;28;20449;-61
2023/02/14 00:54:17;;;;;;;17.17;11.83;;;;;;;;;;5113764;28;20445;-61
2023/02/14 00:56:45;;;;;;;20.00;12.17;;;;;;;;;;5113644;28;20967;-61
2023/02/14 00:59:12;;;;;;;20.97;12.03;;;;;;;;;;5113798;28;20487;-61
2023/02/14 01:01:39;;;;;;;18.10;11.97;;;;;;;;;;5113733;28;20442;-61
2023/02/14 01:04:07;;;;;;;18.63;11.70;;;;;;;;;;5113639;28;20452;-61
2023/02/14 01:06:34;;;;;;;20.00;13.23;;;;;;;;;;5113330;28;20488;-60
2023/02/14 01:09:01;;;;;;;19.87;12.83;;;;;;;;;;5113539;28;20544;-60
2023/02/14 01:11:28;;;;;;;18.30;12.83;;;;;;;;;;5113695;28;20545;-60
2023/02/14 01:13:57;;;;;;;22.10;12.90;;;;;;;;;;5113544;28;20453;-61
2023/02/14 01:16:25;;;;;;;20.23;12.27;;;;;;;;;;5113466;28;20450;-61
2023/02/14 01:18:52;;;;;;;20.30;12.10;;;;;;;;;;5113449;28;20996;-61
2023/02/14 01:21:20;;;;;;;18.50;11.60;;;;;;;;;;5113370;28;20538;-61
2023/02/14 01:23:48;;;;;;;17.30;12.67;;;;;;;;;;5113175;28;20452;-60
2023/02/14 01:26:16;;;;;;;17.87;12.20;;;;;;;;;;5113403;28;20490;-61
2023/02/14 01:28:43;;;;;;;16.40;11.17;;;;;;;;;;5113351;28;20453;-61
2023/02/14 01:31:13;;;;;;;19.40;11.90;;;;;;;;;;5113365;28;20824;-61
2023/02/14 01:33:41;;;;;;;18.43;10.77;;;;;;;;;;5113185;28;20452;-61
2023/02/14 01:36:08;;;;;;;17.13;11.43;;;;;;;;;;5113090;28;20482;-61
2023/02/14 01:38:35;;;;;;;21.27;11.90;;;;;;;;;;5113324;28;20472;-61
2023/02/14 01:41:02;;;;;;;20.10;12.30;;;;;;;;;;5113185;28;20454;-61
2023/02/14 01:43:29;;;;;;;17.03;11.83;;;;;;;;;;5113185;28;20446;-61
2023/02/14 01:45:55;;;;;;;16.17;11.77;;;;;;;;;;5112968;28;20517;-61
2023/02/14 01:48:24;;;;;;;18.07;11.70;;;;;;;;;;5113124;28;20895;-61
2023/02/14 01:50:52;;;;;;;18.73;10.70;;;;;;;;;;5113051;28;20812;-61
2023/02/14 01:53:21;;;;;;;17.40;11.63;;;;;;;;;;5113177;28;20448;-61
2023/02/14 01:55:52;;;;;;;15.50;10.90;;;;;;;;;;5113187;28;20489;-61
2023/02/14 01:58:20;;;;;;;16.40;11.50;;;;;;;;;;5113042;28;20774;-60
2023/02/14 02:00:59;;;;;;;15.77;10.83;;;;;;;;;;5113074;28;20552;-61
2023/02/14 02:03:30;;;;;;;15.20;9.70;;;;;;;;;;5113144;28;20437;-61
2023/02/14 02:06:00;;;;;;;16.10;10.50;;;;;;;;;;5113090;28;20474;-60
2023/02/14 02:08:27;;;;;;;15.27;10.60;;;;;;;;;;5113205;28;20448;-60
2023/02/14 02:10:54;;;;;;;18.90;12.10;;;;;;;;;;5113015;28;20450;-60
2023/02/14 02:13:21;;;;;;;16.23;11.20;;;;;;;;;;5112879;28;20461;-61
2023/02/14 02:15:54;;;;;;;19.43;11.63;;;;;;;;;;5112813;28;20506;-60
2023/02/14 02:18:27;;;;;;;14.97;10.53;;;;;;;;;;5112940;28;20446;-60
2023/02/14 02:21:13;;;;;;;17.83;9.80;;;;;;;;;;5116932;28;20892;-61
2023/02/14 02:23:58;;;;;;;15.80;10.33;;;;;;;;;;5116715;28;20445;-61
2023/02/14 02:26:48;;;;;;;18.50;12.00;;;;;;;;;;5116916;28;20481;-60
2023/02/14 02:29:26;;;;;;;18.43;12.80;;;;;;;;;;5091494;28;20449;-61
2023/02/14 02:32:03;;;;;;;16.17;11.40;;;;;;;;;;5116666;28;20455;-61
2023/02/14 02:34:39;;;;;;;16.60;11.37;;;;;;;;;;5116413;28;20481;-61
2023/02/14 02:37:12;;;;;;;17.43;12.47;;;;;;;;;;5116680;28;20449;-61
2023/02/14 02:39:46;;;;;;;17.57;11.63;;;;;;;;;;5116620;28;20449;-60
2023/02/14 02:42:22;;;;;;;15.10;11.47;;;;;;;;;;5116539;28;20522;-61
2023/02/14 02:44:52;;;;;;;17.10;11.13;;;;;;;;;;5116035;28;20487;-61
2023/02/14 02:47:23;;;;;;;19.27;10.97;;;;;;;;;;5116433;28;20990;-61
2023/02/14 02:56:44;;;;;;;18.80;12.30;;;;;;;;;;5116118;28;20487;-60
2023/02/14 02:58:19;;;;;;;16.37;11.37;;;;;;;;;;5115851;28;20445;-61
2023/02/14 03:00:46;;;;;;;18.10;10.33;;;;;;;;;;5116127;28;20468;-61
2023/02/14 03:05:58;;;;;;;18.03;11.50;;;;;;;;;;5115980;28;20572;-61
2023/02/14 03:08:27;;;;;;;16.60;10.97;;;;;;;;;;5116013;28;20456;-61
2023/02/14 03:10:54;;;;;;;18.40;12.30;;;;;;;;;;5115963;28;20449;-60
2023/02/14 03:13:31;;;;;;;18.83;11.50;;;;;;;;;;5115816;28;20457;-60
2023/02/14 03:16:13;;;;;;;18.77;11.00;;;;;;;;;;5115830;28;20457;-61
2023/02/14 03:21:31;;;;;;;19.07;11.50;;;;;;;;;;5115739;28;20456;-61
2023/02/14 03:24:05;;;;;;;17.67;11.77;;;;;;;;;;5115616;28;20450;-61
2023/02/14 03:26:35;;;;;;;18.77;11.10;;;;;;;;;;5115511;28;20508;-61
2023/02/14 03:29:06;;;;;;;17.57;10.43;;;;;;;;;;5115630;28;20456;-61
2023/02/14 03:31:36;;;;;;;15.80;11.07;;;;;;;;;;5115503;28;20797;-61
2023/02/14 03:34:09;;;;;;;16.50;10.87;;;;;;;;;;5115492;28;20820;-61
2023/02/14 03:36:40;;;;;;;13.53;9.47;;;;;;;;;;5115465;28;20449;-61
2023/02/14 03:39:11;;;;;;;14.00;10.00;;;;;;;;;;5115287;28;20450;-61
2023/02/14 03:41:39;;;;;;;14.70;10.77;;;;;;;;;;5115593;28;20805;-61
2023/02/14 03:44:10;;;;;;;13.10;10.40;;;;;;;;;;5115360;28;20452;-61
2023/02/14 03:46:38;;;;;;;17.40;11.50;;;;;;;;;;5114934;28;20577;-60
2023/02/14 03:49:07;;;;;;;18.77;11.43;;;;;;;;;;5115060;28;20814;-60
2023/02/14 03:51:35;;;;;;;19.83;13.33;;;;;;;;;;5115016;28;20940;-61
2023/02/14 03:54:02;;;;;;;18.87;11.57;;;;;;;;;;5115136;28;20801;-61
2023/02/14 03:56:34;;;;;;;17.80;11.50;;;;;;;;;;5115176;28;20450;-61
2023/02/14 03:59:05;;;;;;;20.23;10.70;;;;;;;;;;5115019;28;20450;-61
2023/02/14 04:01:35;;;;;;;15.27;11.10;;;;;;;;;;5114949;28;20450;-61
2023/02/14 04:04:03;;;;;;;16.40;11.17;;;;;;;;;;5114685;28;20450;-61
2023/02/14 04:06:30;;;;;;;17.30;11.67;;;;;;;;;;5114893;28;20488;-61
2023/02/14 04:08:57;;;;;;;18.10;12.30;;;;;;;;;;5114864;28;20811;-61
2023/02/14 04:11:23;;;;;;;18.60;11.13;;;;;;;;;;5114755;28;20456;-61
2023/02/14 04:13:52;;;;;;;18.43;11.83;;;;;;;;;;5114418;28;20937;-60
2023/02/14 04:16:19;;;;;;;18.03;12.80;;;;;;;;;;5114558;28;20486;-61
2023/02/14 04:21:30;;;;;;;20.23;11.53;;;;;;;;;;5114425;28;20875;-61
2023/02/14 04:23:57;;;;;;;21.83;12.30;;;;;;;;;;5114392;28;20486;-60
2023/02/14 04:26:24;;;;;;;19.90;12.53;;;;;;;;;;5114425;28;20480;-60
2023/02/14 04:28:52;;;;;;;19.00;12.23;;;;;;;;;;5114286;28;20452;-61
2023/02/14 04:31:19;;;;;;;16.67;10.87;;;;;;;;;;5114196;28;20449;-60
2023/02/14 04:33:47;;;;;;;18.57;11.60;;;;;;;;;;5114097;28;20455;-60
2023/02/14 04:36:13;;;;;;;20.13;13.80;;;;;;;;;;5114321;28;20540;-60
2023/02/14 04:38:40;;;;;;;19.80;11.77;;;;;;;;;;5114187;28;20444;-60
2023/02/14 04:41:07;;;;;;;19.47;12.37;;;;;;;;;;5113988;28;20451;-60
2023/02/14 04:43:34;;;;;;;21.23;13.17;;;;;;;;;;5113663;28;20448;-61
2023/02/14 04:46:02;;;;;;;25.60;13.47;;;;;;;;;;5113816;28;20473;-61
2023/02/14 04:48:29;;;;;;;18.20;11.87;;;;;;;;;;5113981;28;20449;-60
2023/02/14 04:50:56;;;;;;;18.50;11.50;;;;;;;;;;5114089;28;20783;-61
2023/02/14 04:53:23;;;;;;;17.70;10.97;;;;;;;;;;5113861;28;20537;-61
2023/02/14 04:55:50;;;;;;;20.37;11.53;;;;;;;;;;5113914;28;20447;-60
2023/02/14 04:58:17;;;;;;;18.07;10.80;;;;;;;;;;5113696;28;20450;-61
2023/02/14 05:00:44;;;;;;;15.87;10.93;;;;;;;;;;5113936;28;20471;-61
2023/02/14 05:03:12;;;;;;;17.63;11.80;;;;;;;;;;5113768;28;20452;-60
2023/02/14 05:05:39;;;;;;;18.30;12.93;;;;;;;;;;5113799;28;20485;-60
2023/02/14 05:08:06;;;;;;;20.00;11.83;;;;;;;;;;5113581;28;20489;-61
2023/02/14 05:10:33;;;;;;;17.37;11.97;;;;;;;;;;5113542;28;20452;-61
2023/02/14 05:13:01;;;;;;;14.77;10.87;;;;;;;;;;5113475;28;20805;-61
2023/02/14 05:15:28;;;;;;;18.40;12.07;;;;;;;;;;5113402;28;20933;-61
2023/02/14 05:18:00;;;;;;;19.20;13.07;;;;;;;;;;5113542;28;20545;-61
2023/02/14 05:20:28;;;;;;;20.03;12.50;;;;;;;;;;5113586;28;20482;-60
2023/02/14 05:22:55;;;;;;;16.07;11.60;;;;;;;;;;5113371;28;20452;-61
2023/02/14 05:25:22;;;;;;;18.10;12.07;;;;;;;;;;5113265;28;20449;-61
2023/02/14 05:27:49;;;;;;;18.83;12.57;;;;;;;;;;5113494;28;20972;-61
2023/02/14 05:30:16;;;;;;;14.27;11.13;;;;;;;;;;5113653;28;20537;-61
2023/02/14 05:32:43;;;;;;;18.27;12.67;;;;;;;;;;5113949;28;20885;-61
2023/02/14 05:35:10;;;;;;;15.60;11.50;;;;;;;;;;5113324;28;20475;-60
2023/02/14 05:37:38;;;;;;;20.73;10.93;;;;;;;;;;5113194;28;20948;-60
2023/02/14 05:40:07;;;;;;;18.23;11.60;;;;;;;;;;5113494;28;20448;-60
2023/02/14 05:42:34;;;;;;;21.40;12.13;;;;;;;;;;5113057;28;20538;-60
2023/02/14 05:45:01;;;;;;;23.57;12.80;;;;;;;;;;5113038;28;20474;-60
2023/02/14 05:47:27;;;;;;;22.37;12.47;;;;;;;;;;5113130;28;20484;-60
2023/02/14 05:49:54;;;;;;;22.43;13.50;;;;;;;;;;5113149;28;20540;-60
2023/02/14 05:52:21;;;;;;;19.23;12.80;;;;;;;;;;5113027;28;20829;-60
2023/02/14 05:54:50;;;;;;;17.60;12.13;;;;;;;;;;5115567;28;20456;-60
2023/02/14 05:57:17;;;;;;;18.60;12.27;;;;;;;;;;5117403;28;20448;-60
2023/02/14 05:59:44;;;;;;;20.70;11.97;;;;;;;;;;5117132;28;20986;-60
2023/02/14 06:02:11;;;;;;;17.00;11.57;;;;;;;;;;5117165;28;20494;-60
2023/02/14 06:04:38;;;;;;;20.07;12.87;;;;;;;;;;5116482;28;21006;-60
2023/02/14 06:07:05;;;;;;;20.00;13.40;;;;;;;;;;5116880;28;20470;-60
2023/02/14 06:09:31;;;;;;;22.03;14.00;;;;;;;;;;5117024;28;20442;-60
2023/02/14 06:12:00;;;;;;;18.37;13.07;;;;;;;;;;5117080;28;20449;-60
2023/02/14 06:14:27;;;;;;;21.00;13.67;;;;;;;;;;5116881;28;20805;-60
2023/02/14 06:16:54;;;;;;;20.10;13.07;;;;;;;;;;5117003;28;20457;-60
2023/02/14 06:19:21;;;;;;;20.00;12.47;;;;;;;;;;5116764;28;20544;-60
2023/02/14 06:21:48;;;;;;;21.53;12.17;;;;;;;;;;5117015;28;20481;-60
2023/02/14 06:24:15;;;;;;;20.87;13.10;;;;;;;;;;5116694;28;20446;-60
2023/02/14 06:26:42;;;;;;;18.03;12.57;;;;;;;;;;5116632;28;20540;-61
2023/02/14 06:29:10;;;;;;;21.37;11.97;;;;;;;;;;5116652;28;20547;-60
2023/02/14 06:31:37;;;;;;;18.67;13.17;;;;;;;;;;5116501;28;20458;-60
2023/02/14 06:34:04;;;;;;;22.93;13.67;;;;;;;;;;5116410;28;20889;-60
2023/02/14 06:36:31;;;;;;;21.60;12.27;;;;;;;;;;5116624;28;20543;-60
2023/02/14 06:38:58;;;;;;;21.20;14.00;;;;;;;;;;5116546;28;20441;-60
2023/02/14 06:41:25;;;;;;;19.57;12.90;;;;;;;;;;5116410;28;20444;-60
2023/02/14 06:43:51;;;;;;;15.50;11.70;;;;;;;;;;5116144;28;20947;-60
2023/02/14 06:46:20;;;;;;;18.67;13.13;;;;;;;;;;5116044;28;20469;-60
2023/02/14 06:48:47;;;;;;;20.13;12.30;;;;;;;;;;5116024;28;20491;-60
2023/02/14 06:51:14;;;;;;;18.07;12.67;;;;;;;;;;5116468;28;20536;-60
2023/02/14 06:53:41;;;;;;;21.03;12.63;;;;;;;;;;5116136;28;20539;-60
2023/02/14 06:56:08;;;;;;;21.23;14.03;;;;;;;;;;5116209;28;20455;-60
2023/02/14 06:58:35;;;;;;;23.43;14.13;;;;;;;;;;5116012;28;20876;-61
2023/02/14 07:01:02;;;;;;;19.90;12.23;;;;;;;;;;5115922;28;20442;-60
2023/02/14 07:03:30;;;;;;;17.20;11.00;;;;;;;;;;5116163;28;20442;-60
2023/02/14 07:05:58;;;;;;;20.93;11.90;;;;;;;;;;5115394;28;20970;-60
2023/02/14 07:08:25;;;;;;;21.93;15.03;;;;;;;;;;5116020;28;20484;-60
2023/02/14 07:10:52;;;;;;;21.47;14.37;;;;;;;;;;5115752;28;20522;-60
2023/02/14 07:13:18;;;;;;;21.20;14.17;;;;;;;;;;5115552;28;20452;-60
2023/02/14 07:15:45;;;;;;;21.80;13.73;;;;;;;;;;5115459;28;20541;-60
2023/02/14 07:18:12;;;;;;;20.37;12.50;;;;;;;;;;5115806;28;20539;-61
2023/02/14 07:20:41;;;;;;;17.17;12.90;;;;;;;;;;5115834;28;20815;-61
2023/02/14 07:23:07;;;;;;;17.60;12.97;;;;;;;;;;5115698;28;20547;-60
2023/02/14 07:25:34;;;;;;;17.53;12.73;;;;;;;;;;5115546;28;20492;-60
2023/02/14 07:28:03;;;;;;;22.53;14.90;;;;;;;;;;5115429;28;20487;-60
2023/02/14 07:30:30;;;;;;;26.87;16.80;;;;;;;;;;5115469;28;20536;-60
2023/02/14 07:32:57;;;;;;;23.93;14.97;;;;;;;;;;5115550;28;20485;-60
2023/02/14 07:35:24;;;;;;;25.47;14.50;;;;;;;;;;5115300;28;20950;-61
2023/02/14 07:37:52;;;;;;;22.07;15.73;;;;;;;;;;5115266;28;20548;-60
2023/02/14 07:40:19;;;;;;;21.80;13.83;;;;;;;;;;5115274;28;20533;-61
2023/02/14 07:42:52;;;;;;;22.43;14.13;;;;;;;;;;5115066;28;20453;-60
2023/02/14 07:45:19;;;;;;;19.70;13.80;;;;;;;;;;5115081;28;20477;-60
2023/02/14 07:47:48;;;;;;;20.77;13.43;;;;;;;;;;5115031;28;20477;-60
2023/02/14 07:50:14;;;;;;;25.83;14.00;;;;;;;;;;5115171;28;20541;-60
2023/02/14 07:52:41;;;;;;;23.27;15.47;;;;;;;;;;5115059;28;20460;-60
2023/02/14 07:55:10;;;;;;;20.03;14.27;;;;;;;;;;5114830;28;20445;-60
2023/02/14 07:57:37;;;;;;;23.23;14.50;;;;;;;;;;5115131;28;20808;-60
2023/02/14 08:00:04;;;;;;;20.27;13.33;;;;;;;;;;5114876;28;20855;-60
2023/02/14 08:02:31;;;;;;;20.60;14.60;;;;;;;;;;5114972;28;20445;-61
2023/02/14 08:04:58;;;;;;;18.93;13.43;;;;;;;;;;5114912;28;20809;-60
2023/02/14 08:07:25;;;;;;;19.97;12.10;;;;;;;;;;5114739;28;20484;-61
2023/02/14 08:09:52;;;;;;;23.03;14.87;;;;;;;;;;5114530;28;20452;-60
2023/02/14 08:17:45;;;;;;;19.50;12.80;;;;;;;;;;5112575;28;20541;-61
2023/02/14 08:20:13;;;;;;;21.03;13.10;;;;;;;;;;5114291;28;20532;-60
2023/02/14 08:22:39;;;;;;;21.10;13.73;;;;;;;;;;5114692;28;20529;-60
2023/02/14 08:25:07;;;;;;;21.70;14.30;;;;;;;;;;5114156;28;20461;-60
2023/02/14 08:27:35;;;;;;;20.67;12.53;;;;;;;;;;5114586;28;20534;-62
2023/02/14 08:30:02;;;;;;;16.60;12.50;;;;;;;;;;5114170;28;20446;-62
2023/02/14 08:32:29;;;;;;;21.57;12.87;;;;;;;;;;5114213;28;20449;-63
2023/02/14 08:34:56;;;;;;;20.80;13.10;;;;;;;;;;5113941;28;20449;-62
2023/02/14 08:37:23;;;;;;;27.23;14.70;;;;;;;;;;5114196;28;20855;-56
2023/02/14 08:39:49;;;;;;;21.70;13.07;;;;;;;;;;5114201;28;20455;-60
2023/02/14 08:42:16;;;;;;;25.87;14.77;;;;;;;;;;5114193;28;20455;-65
2023/02/14 08:44:45;;;;;;;23.90;14.80;;;;;;;;;;5113631;28;20540;-61
2023/02/14 08:47:12;;;;;;;22.77;14.77;;;;;;;;;;5113914;28;20814;-62
2023/02/14 08:49:39;;;;;;;25.00;14.80;;;;;;;;;;5113675;28;20457;-63
2023/02/14 08:52:06;;;;;;;24.40;15.60;;;;;;;;;;5114012;28;20442;-62
2023/02/14 08:54:33;;;;;;;23.53;14.10;;;;;;;;;;5113881;28;20571;-61
2023/02/14 08:57:02;;;;;;;29.50;14.53;;;;;;;;;;5113600;28;20952;-62
2023/02/14 08:59:29;;;;;;;21.00;14.13;;;;;;;;;;5113660;28;20485;-62
2023/02/14 09:01:57;;;;;;;21.50;14.50;;;;;;;;;;5113530;28;20805;-65
2023/02/14 09:04:24;;;;;;;23.60;15.63;;;;;;;;;;5112431;28;20514;-64
2023/02/14 09:06:51;;;;;;;21.37;14.40;;;;;;;;;;5113289;28;20808;-61
2023/02/14 09:09:18;;;;;;;22.00;13.50;;;;;;;;;;5113787;28;20482;-60
2023/02/14 09:11:45;;;;;;;22.13;14.27;;;;;;;;;;5113578;28;20450;-65
2023/02/14 09:14:12;;;;;;;23.90;15.30;;;;;;;;;;5113481;28;20446;-63
2023/02/14 09:16:39;;;;;;;20.70;13.60;;;;;;;;;;5113366;28;20449;-64
2023/02/14 09:19:07;;;;;;;22.83;15.10;;;;;;;;;;5112739;28;20452;-62
2023/02/14 09:21:34;;;;;;;20.53;14.27;;;;;;;;;;5112955;28;20447;-63
2023/02/14 09:24:01;;;;;;;21.67;14.40;;;;;;;;;;5113278;28;20847;-63
2023/02/14 09:26:28;;;;;;;26.30;15.80;;;;;;;;;;5113308;28;20449;-65
2023/02/14 09:28:56;;;;;;;21.90;13.60;;;;;;;;;;5113022;28;20513;-64
2023/02/14 09:31:24;;;;;;;20.97;14.60;;;;;;;;;;5113575;28;20446;-60
2023/02/14 09:33:51;;;;;;;18.40;13.63;;;;;;;;;;5113434;28;20491;-65
2023/02/14 09:36:20;;;;;;;22.57;16.17;;;;;;;;;;5113096;28;20485;-60
2023/02/14 09:38:47;;;;;;;18.93;14.00;;;;;;;;;;5113292;28;20442;-64
2023/02/14 09:41:30;;;;;;;23.37;13.97;;;;;;;;;;5113019;28;20452;-62
2023/02/14 09:44:00;;;;;;;20.30;13.80;;;;;;;;;;5113040;28;20447;-60
2023/02/14 09:46:27;;;;;;;21.37;14.73;;;;;;;;;;5112908;28;20983;-62
2023/02/14 09:48:55;;;;;;;25.80;15.73;;;;;;;;;;5113030;28;20480;-61
2023/02/14 09:51:24;;;;;;;22.27;15.17;;;;;;;;;;5112825;28;20452;-54
2023/02/14 09:53:52;;;;;;;24.97;16.23;;;;;;;;;;5112917;28;20481;-60
2023/02/14 09:56:21;;;;;;;23.53;15.30;;;;;;;;;;5112987;28;20449;-61
2023/02/14 09:58:52;;;;;;;22.37;13.93;;;;;;;;;;5113263;28;20464;-65
2023/02/14 10:01:22;;;;;;;25.67;15.95;;;;;;;;;;5113168;28;20449;-61
2023/02/14 10:04:16;;;;;;;25.60;16.73;;;;;;;;;;5112997;28;20188;-60
2023/02/14 10:06:49;;;;;;;25.37;14.97;;;;;;;;;;5112950;28;21020;-60
2023/02/14 10:09:22;;;;;;;27.00;16.10;;;;;;;;;;5112828;28;21013;-60
2023/02/14 10:11:49;;;;;;;26.00;15.70;;;;;;;;;;5113147;28;20861;-60
2023/02/14 10:14:17;;;;;;;22.83;15.50;;;;;;;;;;5112750;28;20449;-60
2023/02/14 10:16:46;;;;;;;23.93;15.47;;;;;;;;;;5112793;28;20951;-62
2023/02/14 10:19:18;;;;;;;30.63;16.40;;;;;;;;;;5112669;28;20869;-62
2023/02/14 10:21:52;;;;;;;24.30;16.07;;;;;;;;;;5113006;28;20466;-63
2023/02/14 10:24:22;;;;;;;23.87;15.70;;;;;;;;;;5112726;28;20452;-61
2023/02/14 10:26:51;;;;;;;26.37;16.47;;;;;;;;;;5112807;28;20453;-59
2023/02/14 10:29:19;;;;;;;20.53;14.23;;;;;;;;;;5112336;28;20944;-59
2023/02/14 10:31:54;;;;;;;20.70;14.70;;;;;;;;;;5112926;28;20506;-60
2023/02/14 10:34:24;;;;;;;30.10;15.53;;;;;;;;;;5112868;28;20448;-61
2023/02/14 10:36:56;;;;;;;25.70;15.97;;;;;;;;;;5112970;28;20444;-61
2023/02/14 10:39:37;;;;;;;18.73;14.70;;;;;;;;;;5112757;28;20996;-61
2023/02/14 10:42:08;;;;;;;23.93;15.50;;;;;;;;;;5116431;28;20445;-59
2023/02/14 10:44:41;;;;;;;27.37;14.93;;;;;;;;;;5116201;28;20442;-59
2023/02/14 10:47:13;;;;;;;24.03;16.93;;;;;;;;;;5116244;28;21015;-60
2023/02/14 10:49:43;;;;;;;22.63;16.43;;;;;;;;;;5116369;28;20840;-61
2023/02/14 10:52:17;;;;;;;25.27;17.20;;;;;;;;;;5116161;28;20445;-60
2023/02/14 10:54:46;;;;;;;22.90;16.40;;;;;;;;;;5116210;28;20442;-59
2023/02/14 10:57:15;;;;;;;22.27;14.47;;;;;;;;;;5116122;28;20967;-60
2023/02/14 10:59:47;;;;;;;24.10;15.20;;;;;;;;;;5116220;28;20456;-59
2023/02/14 11:02:16;;;;;;;25.80;14.50;;;;;;;;;;5116168;28;20448;-59
2023/02/14 11:04:43;;;;;;;21.67;14.97;;;;;;;;;;5115871;28;20449;-60
2023/02/14 11:07:13;;;;;;;20.40;14.33;;;;;;;;;;5116155;28;20545;-59
2023/02/14 11:09:40;;;;;;;20.80;15.87;;;;;;;;;;5115957;28;20488;-65
2023/02/14 11:12:09;;;;;;;22.00;14.67;;;;;;;;;;5115942;28;20442;-63
2023/02/14 11:14:36;;;;;;;36.67;16.47;;;;;;;;;;5115634;28;20452;-61
2023/02/14 11:17:26;;;;;;;22.20;15.70;;;;;;;;;;5115832;28;20560;-59
2023/02/14 11:19:56;;;;;;;18.30;14.90;;;;;;;;;;5115839;28;20453;-61
2023/02/14 11:22:29;;;;;;;26.73;16.47;;;;;;;;;;5115941;28;20536;-65
2023/02/14 11:25:03;;;;;;;24.10;16.10;;;;;;;;;;5115598;28;20453;-65
2023/02/14 11:27:31;;;;;;;23.63;15.37;;;;;;;;;;5115672;28;20446;-63
2023/02/14 11:30:00;;;;;;;20.23;14.37;;;;;;;;;;5115307;28;20987;-64
2023/02/14 11:32:29;;;;;;;26.30;17.03;;;;;;;;;;5115485;28;20453;-63
2023/02/14 11:34:57;;;;;;;25.00;16.77;;;;;;;;;;5115149;28;20968;-64
2023/02/14 11:37:28;;;;;;;21.37;15.90;;;;;;;;;;5115251;28;20446;-63
2023/02/14 11:39:56;;;;;;;20.90;15.17;;;;;;;;;;5115101;28;20464;-63
2023/02/14 11:42:36;;;;;;;21.13;16.00;;;;;;;;;;5114954;28;20446;-54
2023/02/14 11:45:04;;;;;;;20.50;14.83;;;;;;;;;;5115045;28;20899;-58
2023/02/14 11:47:32;;;;;;;24.10;16.37;;;;;;;;;;5115013;28;20461;-59
2023/02/14 11:50:00;;;;;;;20.30;14.70;;;;;;;;;;5114887;28;20576;-61
2023/02/14 11:52:28;;;;;;;24.43;15.17;;;;;;;;;;5113867;28;20446;-60
2023/02/14 11:54:56;;;;;;;23.67;16.03;;;;;;;;;;5114820;28;20485;-62
2023/02/14 11:57:26;;;;;;;23.00;16.00;;;;;;;;;;5114918;28;20541;-65
2023/02/14 11:59:55;;;;;;;21.40;15.43;;;;;;;;;;5114993;28;20846;-66
2023/02/14 12:02:25;;;;;;;20.53;14.80;;;;;;;;;;5114756;28;20541;-63
2023/02/14 12:04:54;;;;;;;25.07;16.37;;;;;;;;;;5114913;28;20562;-61
2023/02/14 12:07:24;;;;;;;24.07;16.27;;;;;;;;;;5114594;28;20871;-63
2023/02/14 12:10:07;;;;;;;22.47;15.20;;;;;;;;;;5114890;28;20478;-64
2023/02/14 12:12:35;;;;;;;24.63;15.80;;;;;;;;;;5114802;28;20446;-59
2023/02/14 12:15:21;;;;;;;22.47;15.17;;;;;;;;;;5114547;28;20442;-60
2023/02/14 12:17:50;;;;;;;19.00;14.57;;;;;;;;;;5114369;28;20467;-61
2023/02/14 12:20:20;;;;;;;26.03;14.90;;;;;;;;;;5114630;28;20449;-60
2023/02/14 12:22:48;;;;;;;18.77;14.20;;;;;;;;;;5114378;28;20481;-59
2023/02/14 12:25:16;;;;;;;21.40;15.30;;;;;;;;;;5113674;28;20442;-58
2023/02/14 12:27:47;;;;;;;21.43;15.47;;;;;;;;;;5114129;28;20452;-59
2023/02/14 12:30:17;;;;;;;20.67;15.77;;;;;;;;;;5114116;28;20468;-60
2023/02/14 12:32:47;;;;;;;19.87;14.77;;;;;;;;;;5114429;28;20447;-59
2023/02/14 12:35:15;;;;;;;20.50;16.43;;;;;;;;;;5114299;28;20545;-60
2023/02/14 12:37:48;;;;;;;22.73;16.30;;;;;;;;;;5114085;28;20545;-59
2023/02/14 12:40:20;;;;;;;24.93;16.33;;;;;;;;;;5114185;28;20452;-59
2023/02/14 12:42:54;;;;;;;23.43;16.63;;;;;;;;;;5113947;28;20450;-61
2023/02/14 12:45:26;;;;;;;23.33;15.20;;;;;;;;;;5113899;28;20476;-60
2023/02/14 12:47:59;;;;;;;20.67;15.40;;;;;;;;;;5114018;28;20442;-60
2023/02/14 12:50:34;;;;;;;19.33;13.30;;;;;;;;;;5113644;28;20565;-60
2023/02/14 12:53:16;;;;;;;26.47;15.93;;;;;;;;;;5113649;28;20457;-61
2023/02/14 12:55:48;;;;;;;23.60;15.50;;;;;;;;;;5092840;28;20787;-61
2023/02/14 12:58:23;;;;;;;21.40;15.37;;;;;;;;;;5114024;28;20545;-60
2023/02/14 13:00:56;;;;;;;24.70;16.17;;;;;;;;;;5113815;28;20456;-59
2023/02/14 13:03:33;;;;;;;28.03;15.23;;;;;;;;;;5112966;28;20460;-63
2023/02/14 13:06:03;;;;;;;19.50;15.27;;;;;;;;;;5113318;28;20457;-62
2023/02/14 13:08:39;;;;;;;21.80;16.50;;;;;;;;;;5113435;28;20446;-60
2023/02/14 13:11:09;;;;;;;23.23;15.43;;;;;;;;;;5113317;28;20536;-63
2023/02/14 13:13:43;;;;;;;21.93;15.80;;;;;;;;;;5113096;28;20453;-64
2023/02/14 13:16:15;;;;;;;20.93;14.90;;;;;;;;;;5112970;28;20456;-62
2023/02/14 13:18:47;;;;;;;19.27;14.97;;;;;;;;;;5112993;28;20537;-65
2023/02/14 13:21:15;;;;;;;20.20;15.63;;;;;;;;;;5113035;28;20446;-60
2023/02/14 13:23:44;;;;;;;21.50;15.30;;;;;;;;;;5113065;28;20533;-60
2023/02/14 13:26:13;;;;;;;25.00;17.57;;;;;;;;;;5113146;28;20446;-60
2023/02/14 13:28:41;;;;;;;19.73;14.40;;;;;;;;;;5112857;28;20544;-59
2023/02/14 13:31:08;;;;;;;29.47;18.47;;;;;;;;;;5112936;28;20954;-63
2023/02/14 13:33:38;;;;;;;18.10;14.67;;;;;;;;;;5113010;28;20452;-62
2023/02/14 13:36:07;;;;;;;22.47;15.57;;;;;;;;;;5112970;28;20449;-62
2023/02/14 13:38:35;;;;;;;26.73;16.73;;;;;;;;;;5112876;28;20481;-61
2023/02/14 13:41:04;;;;;;;21.57;15.70;;;;;;;;;;5112752;28;20556;-62
2023/02/14 13:43:47;;;;;;;23.00;15.47;;;;;;;;;;5112927;28;20533;-63
2023/02/14 13:46:15;;;;;;;22.23;15.83;;;;;;;;;;5112744;28;20469;-62
2023/02/14 13:48:46;;;;;;;24.43;17.20;;;;;;;;;;5112463;28;20953;-63
2023/02/14 13:51:13;;;;;;;23.53;16.00;;;;;;;;;;5112778;28;20503;-58
2023/02/14 13:53:41;;;;;;;30.40;16.70;;;;;;;;;;5112433;28;20533;-57
2023/02/14 13:56:27;;;;;;;22.83;16.23;;;;;;;;;;5112548;28;20442;-58
2023/02/14 13:58:58;;;;;;;23.20;16.30;;;;;;;;;;5112712;28;20555;-58
2023/02/14 14:01:30;;;;;;;20.97;15.53;;;;;;;;;;5112482;28;20809;-57
2023/02/14 14:03:59;;;;;;;21.27;15.43;;;;;;;;;;5112414;28;20458;-57
2023/02/14 14:06:26;;;;;;;23.97;17.30;;;;;;;;;;5112692;28;20553;-58
2023/02/14 14:08:55;;;;;;;20.87;15.07;;;;;;;;;;5112567;28;20445;-58
2023/02/14 14:11:49;;;;;;;24.00;18.90;;;;;;;;;;5112667;28;20442;-57
2023/02/14 14:14:34;;;;;;;24.07;15.80;;;;;;;;;;5112569;28;20537;-58
2023/02/14 14:17:01;;;;;;;23.33;17.90;;;;;;;;;;5116559;28;20446;-56
2023/02/14 14:19:38;;;;;;;21.10;16.07;;;;;;;;;;5116588;28;20448;-58
2023/02/14 14:22:06;;;;;;;21.53;16.07;;;;;;;;;;5116653;28;20846;-57
2023/02/14 14:24:33;;;;;;;20.90;16.37;;;;;;;;;;5116292;28;20541;-58
2023/02/14 14:27:01;;;;;;;25.80;15.70;;;;;;;;;;5116224;28;20831;-57
2023/02/14 14:29:30;;;;;;;22.13;15.30;;;;;;;;;;5116262;28;20469;-57
2023/02/14 14:31:57;;;;;;;19.40;15.50;;;;;;;;;;5116393;28;20813;-57
2023/02/14 14:34:25;;;;;;;23.33;15.00;;;;;;;;;;5116385;28;20537;-56
2023/02/14 14:37:02;;;;;;;23.87;16.20;;;;;;;;;;5116385;28;20449;-58
2023/02/14 14:39:31;;;;;;;23.10;16.07;;;;;;;;;;5115954;28;20786;-57
2023/02/14 14:42:05;;;;;;;19.37;14.90;;;;;;;;;;5116279;28;20506;-57
2023/02/14 14:44:33;;;;;;;25.60;16.83;;;;;;;;;;5116007;28;20790;-57
2023/02/14 14:47:00;;;;;;;21.77;13.33;;;;;;;;;;5116055;28;20570;-58
2023/02/14 14:49:28;;;;;;;22.33;14.60;;;;;;;;;;5115826;28;20501;-57